Time;durP1;ratioP1;P1;durP2;ratioP2;P2;SDS_P1;SDS_P2;PMS_P1;PMS_P2;Temp;Humidity;BMP_temperature;BMP_pressure;BME280_temperature;BME280_humidity;BME280_pressure;Samples;Min_cycle;Max_cycle;Signal;HPM_P1;HPM_P2
2022/10/17 00:01:57;;;;;;;;;;;20.00;93.20;;;;;;5135094;28;20282;-42
2022/10/17 00:04:22;;;;;;;;;;;20.00;93.20;;;;;;5134825;28;19986;-42
2022/10/17 00:06:48;;;;;;;;;;;19.90;93.20;;;;;;5134756;28;19927;-42
2022/10/17 00:09:13;;;;;;;;;;;19.90;93.20;;;;;;5134647;28;19923;-42
2022/10/17 00:11:39;;;;;;;;;;;20.00;93.20;;;;;;5135041;27;19937;-43
2022/10/17 00:14:04;;;;;;;;;;;20.00;93.20;;;;;;5138031;27;20382;-42
2022/10/17 00:16:32;;;;;;;;;;;20.00;93.20;;;;;;5139083;27;19915;-44
2022/10/17 00:18:58;;;;;;;;;;;20.00;93.20;;;;;;5139100;27;19908;-42
2022/10/17 00:21:24;;;;;;;;;;;20.00;93.20;;;;;;5139329;27;19908;-41
2022/10/17 00:23:49;;;;;;;;;;;19.90;93.20;;;;;;5139055;27;19933;-41
2022/10/17 00:26:15;;;;;;;;;;;20.00;93.20;;;;;;5138902;27;19912;-41
2022/10/17 00:28:41;;;;;;;;;;;19.90;93.20;;;;;;5138969;27;19908;-44
2022/10/17 00:31:07;;;;;;;;;;;20.00;93.30;;;;;;5138696;27;20381;-41
2022/10/17 00:33:33;;;;;;;;;;;19.90;93.20;;;;;;5138818;27;20373;-43
2022/10/17 00:36:07;;;;;;;;;;;19.90;93.30;;;;;;5138749;27;19915;-41
2022/10/17 00:38:32;;;;;;;;;;;20.00;93.20;;;;;;5119961;27;20362;-41
2022/10/17 00:40:58;;;;;;;;;;;19.90;93.20;;;;;;5139040;27;19913;-42
2022/10/17 00:43:23;;;;;;;;;;;19.90;93.20;;;;;;5138715;27;19958;-42
2022/10/17 00:45:48;;;;;;;;;;;19.90;93.30;;;;;;5133184;27;20216;-42
2022/10/17 00:48:14;;;;;;;;;;;19.90;93.30;;;;;;5117958;28;20006;-42
2022/10/17 00:50:41;;;;;;;;;;;19.90;93.30;;;;;;5118034;28;19908;-41
2022/10/17 00:53:08;;;;;;;;;;;19.90;93.30;;;;;;5117963;28;19911;-41
2022/10/17 00:55:41;;;;;;;;;;;19.90;93.30;;;;;;5117501;28;19916;-41
2022/10/17 00:58:06;;;;;;;;;;;19.90;93.30;;;;;;5117718;28;20324;-41
2022/10/17 01:00:32;;;;;;;;;;;19.90;93.20;;;;;;5117745;28;19911;-42
2022/10/17 01:02:57;;;;;;;;;;;19.90;93.20;;;;;;5117700;28;19938;-42
2022/10/17 01:05:23;;;;;;;;;;;19.90;93.20;;;;;;5117421;28;20354;-42
2022/10/17 01:07:50;;;;;;;;;;;20.00;93.30;;;;;;5115037;28;19919;-43
2022/10/17 01:10:16;;;;;;;;;;;19.90;93.20;;;;;;5116277;28;19961;-41
2022/10/17 01:12:41;;;;;;;;;;;20.00;93.20;;;;;;5116006;28;20346;-42
2022/10/17 01:15:28;;;;;;;;;;;19.90;93.20;;;;;;5115888;28;19916;-42
2022/10/17 01:18:07;;;;;;;;;;;19.90;93.20;;;;;;5116270;28;19908;-43
2022/10/17 01:20:32;;;;;;;;;;;19.90;93.20;;;;;;5116203;28;19908;-42
2022/10/17 01:23:21;;;;;;;;;;;19.90;93.20;;;;;;5115871;28;19953;-41
2022/10/17 01:25:47;;;;;;;;;;;19.90;93.20;;;;;;5115938;28;19908;-43
2022/10/17 01:28:12;;;;;;;;;;;19.90;93.20;;;;;;5116518;28;19930;-42
2022/10/17 01:30:42;;;;;;;;;;;19.90;93.20;;;;;;5115751;28;19907;-42
2022/10/17 01:33:08;;;;;;;;;;;19.90;93.30;;;;;;5115151;28;19955;-41
2022/10/17 01:35:47;;;;;;;;;;;19.90;93.30;;;;;;5115812;28;20370;-42
2022/10/17 01:38:23;;;;;;;;;;;19.90;93.30;;;;;;5115604;28;20419;-43
2022/10/17 01:41:09;;;;;;;;;;;19.90;93.30;;;;;;5115381;28;20277;-41
2022/10/17 01:43:40;;;;;;;;;;;19.90;93.40;;;;;;5104031;28;20273;-42
2022/10/17 01:46:17;;;;;;;;;;;19.90;93.30;;;;;;5121770;28;19913;-41
2022/10/17 01:48:44;;;;;;;;;;;19.90;93.30;;;;;;5135919;28;19916;-45
2022/10/17 01:51:14;;;;;;;;;;;19.90;93.40;;;;;;5136207;28;19942;-42
2022/10/17 01:53:45;;;;;;;;;;;19.90;93.40;;;;;;5136491;28;19907;-42
2022/10/17 01:56:12;;;;;;;;;;;19.90;93.30;;;;;;5136161;28;19916;-41
2022/10/17 01:58:54;;;;;;;;;;;19.90;93.30;;;;;;5135829;28;19907;-41
2022/10/17 02:01:20;;;;;;;;;;;19.90;93.30;;;;;;5136064;28;19908;-42
2022/10/17 02:03:47;;;;;;;;;;;19.90;93.20;;;;;;5136293;28;19949;-41
2022/10/17 02:06:12;;;;;;;;;;;19.90;93.30;;;;;;5105548;28;797168;-42
2022/10/17 02:08:45;;;;;;;;;;;19.90;93.30;;;;;;5120474;27;19958;-41
2022/10/17 02:11:13;;;;;;;;;;;19.90;93.30;;;;;;5137281;27;19911;-42
2022/10/17 02:13:57;;;;;;;;;;;19.90;93.30;;;;;;5136827;27;19931;-41
2022/10/17 02:16:34;;;;;;;;;;;19.90;93.30;;;;;;5136727;27;20325;-41
2022/10/17 02:19:18;;;;;;;;;;;19.90;93.40;;;;;;5136691;27;19907;-42
2022/10/17 02:21:49;;;;;;;;;;;19.90;93.30;;;;;;5136300;27;19907;-44
2022/10/17 02:24:33;;;;;;;;;;;19.90;93.40;;;;;;5136559;27;19908;-41
2022/10/17 02:27:01;;;;;;;;;;;19.90;93.40;;;;;;5136272;27;20311;-41
2022/10/17 02:29:33;;;;;;;;;;;19.90;93.40;;;;;;5136518;27;19911;-41
2022/10/17 02:32:04;;;;;;;;;;;19.90;93.40;;;;;;5136258;27;19907;-41
2022/10/17 02:34:35;;;;;;;;;;;19.90;93.40;;;;;;5136326;27;19907;-42
2022/10/17 02:37:02;;;;;;;;;;;19.90;93.40;;;;;;5135556;27;19907;-41
2022/10/17 02:39:28;;;;;;;;;;;19.90;93.40;;;;;;5136305;27;19958;-42
2022/10/17 02:41:55;;;;;;;;;;;19.80;93.40;;;;;;5135977;27;19907;-41
2022/10/17 02:44:22;;;;;;;;;;;19.80;93.50;;;;;;5135850;27;20365;-44
2022/10/17 02:46:51;;;;;;;;;;;19.80;93.50;;;;;;5122451;27;20381;-42
2022/10/17 02:49:20;;;;;;;;;;;19.80;93.50;;;;;;5115633;28;19958;-41
2022/10/17 02:52:05;;;;;;;;;;;19.90;93.50;;;;;;5115318;28;19953;-42
2022/10/17 02:54:46;;;;;;;;;;;19.80;93.50;;;;;;5114582;28;19924;-43
2022/10/17 02:57:12;;;;;;;;;;;19.90;93.40;;;;;;5115378;28;20413;-41
2022/10/17 02:59:40;;;;;;;;;;;19.90;93.40;;;;;;5115766;28;20007;-42
2022/10/17 03:02:05;;;;;;;;;;;19.90;93.40;;;;;;5115422;28;19908;-42
2022/10/17 03:04:32;;;;;;;;;;;19.90;93.40;;;;;;5114975;28;19934;-41
2022/10/17 03:06:57;;;;;;;;;;;19.90;93.40;;;;;;5115115;28;19927;-41
2022/10/17 03:09:22;;;;;;;;;;;19.90;93.40;;;;;;5115232;28;20258;-42
2022/10/17 03:11:48;;;;;;;;;;;19.90;93.40;;;;;;5115088;28;19912;-43
2022/10/17 03:14:13;;;;;;;;;;;19.90;93.40;;;;;;5114623;28;19939;-42
2022/10/17 03:16:39;;;;;;;;;;;19.90;93.40;;;;;;5114740;28;19908;-41
2022/10/17 03:19:04;;;;;;;;;;;19.80;93.40;;;;;;5115005;28;19958;-42
2022/10/17 03:21:30;;;;;;;;;;;19.80;93.40;;;;;;5115020;28;19915;-41
2022/10/17 03:23:55;;;;;;;;;;;19.80;93.50;;;;;;5115022;28;20396;-44
2022/10/17 03:26:21;;;;;;;;;;;19.80;93.60;;;;;;5113665;28;19908;-41
2022/10/17 03:28:46;;;;;;;;;;;19.80;93.50;;;;;;5114870;28;19966;-41
2022/10/17 03:31:13;;;;;;;;;;;19.80;93.50;;;;;;5114842;28;20274;-41
2022/10/17 03:33:39;;;;;;;;;;;19.80;93.50;;;;;;5114375;28;19914;-41
2022/10/17 03:36:16;;;;;;;;;;;19.90;93.50;;;;;;5114387;28;19916;-43
2022/10/17 03:38:41;;;;;;;;;;;19.80;93.50;;;;;;5115068;28;19915;-42
2022/10/17 03:41:07;;;;;;;;;;;19.80;93.50;;;;;;5114519;28;19909;-42
2022/10/17 03:43:33;;;;;;;;;;;19.80;93.50;;;;;;5114447;28;19961;-42
2022/10/17 03:45:59;;;;;;;;;;;19.90;93.50;;;;;;5120661;27;19907;-42
2022/10/17 03:48:24;;;;;;;;;;;19.80;93.40;;;;;;5134975;27;19907;-42
2022/10/17 03:50:50;;;;;;;;;;;19.80;93.50;;;;;;5135122;27;20324;-41
2022/10/17 03:53:15;;;;;;;;;;;19.80;93.50;;;;;;5134985;27;19912;-45
2022/10/17 03:55:41;;;;;;;;;;;19.90;93.50;;;;;;5134765;27;20319;-42
2022/10/17 03:58:06;;;;;;;;;;;19.80;93.50;;;;;;5135077;27;19915;-43
2022/10/17 04:00:34;;;;;;;;;;;19.80;93.50;;;;;;5135116;28;19929;-42
2022/10/17 04:02:59;;;;;;;;;;;19.90;93.50;;;;;;5116568;28;19908;-42
2022/10/17 04:05:25;;;;;;;;;;;19.80;93.50;;;;;;5134904;28;20269;-43
2022/10/17 04:07:50;;;;;;;;;;;19.80;93.50;;;;;;5114510;28;19919;-42
2022/10/17 04:10:16;;;;;;;;;;;19.80;93.50;;;;;;5093851;28;19920;-42
2022/10/17 04:12:41;;;;;;;;;;;19.80;93.60;;;;;;5093971;28;19915;-42
2022/10/17 04:15:07;;;;;;;;;;;19.80;93.60;;;;;;5093622;28;19916;-44
2022/10/17 04:17:32;;;;;;;;;;;19.80;93.60;;;;;;5093702;28;19916;-43
2022/10/17 04:19:58;;;;;;;;;;;19.80;93.50;;;;;;5093890;28;20258;-42
2022/10/17 04:22:23;;;;;;;;;;;19.80;93.60;;;;;;5094310;28;19915;-44
2022/10/17 04:24:49;;;;;;;;;;;19.80;93.50;;;;;;5094042;28;19966;-42
2022/10/17 04:27:14;;;;;;;;;;;19.80;93.50;;;;;;5093894;28;19915;-42
2022/10/17 04:29:40;;;;;;;;;;;19.80;93.50;;;;;;5093811;28;19951;-42
2022/10/17 04:32:05;;;;;;;;;;;19.80;93.50;;;;;;5093824;28;19908;-43
2022/10/17 04:34:30;;;;;;;;;;;19.80;93.50;;;;;;5093228;28;19966;-42
2022/10/17 04:36:56;;;;;;;;;;;19.80;93.50;;;;;;5086495;28;19917;-43
2022/10/17 04:39:21;;;;;;;;;;;19.80;93.50;;;;;;5073080;28;20435;-44
2022/10/17 04:41:47;;;;;;;;;;;19.80;93.60;;;;;;5072872;28;19908;-46
2022/10/17 04:44:12;;;;;;;;;;;19.80;93.60;;;;;;5071985;28;19908;-44
2022/10/17 04:46:38;;;;;;;;;;;19.80;93.60;;;;;;5070620;28;19912;-42
2022/10/17 04:49:03;;;;;;;;;;;19.80;93.60;;;;;;5071529;28;19913;-42
2022/10/17 04:51:29;;;;;;;;;;;19.80;93.60;;;;;;5073162;28;19908;-41
2022/10/17 04:53:54;;;;;;;;;;;19.80;93.60;;;;;;5085219;28;19916;-45
2022/10/17 04:56:21;;;;;;;;;;;19.80;93.50;;;;;;5070881;28;19930;-41
2022/10/17 04:58:47;;;;;;;;;;;19.80;93.60;;;;;;5072259;28;19970;-41
2022/10/17 05:01:13;;;;;;;;;;;19.80;93.60;;;;;;5075685;28;19912;-41
2022/10/17 05:03:39;;;;;;;;;;;19.90;93.60;;;;;;5074410;28;20007;-48
2022/10/17 05:06:09;;;;;;;;;;;19.90;93.60;;;;;;5071471;28;19991;-43
2022/10/17 05:08:35;;;;;;;;;;;19.90;93.60;;;;;;5099405;28;19912;-40
2022/10/17 05:11:00;;;;;;;;;;;19.90;93.70;;;;;;5115860;28;19918;-40
2022/10/17 05:13:26;;;;;;;;;;;19.90;93.70;;;;;;5117103;28;19911;-42
2022/10/17 05:15:51;;;;;;;;;;;19.90;93.70;;;;;;5115856;28;19943;-43
2022/10/17 05:18:17;;;;;;;;;;;19.90;93.80;;;;;;5116084;28;19919;-44
2022/10/17 05:20:42;;;;;;;;;;;20.00;93.80;;;;;;5116543;28;20043;-44
2022/10/17 05:23:08;;;;;;;;;;;20.00;93.80;;;;;;5114641;28;19919;-44
2022/10/17 05:25:33;;;;;;;;;;;20.00;93.80;;;;;;5098029;28;19966;-45
2022/10/17 05:27:59;;;;;;;;;;;20.00;93.80;;;;;;5116897;28;19908;-46
2022/10/17 05:30:24;;;;;;;;;;;20.00;93.80;;;;;;5114452;28;19927;-43
2022/10/17 05:32:53;;;;;;;;;;;20.00;93.80;;;;;;5116936;28;19915;-45
2022/10/17 05:35:19;;;;;;;;;;;20.00;93.80;;;;;;5115622;28;19920;-44
2022/10/17 05:37:45;;;;;;;;;;;20.10;93.80;;;;;;5115725;28;20266;-44
2022/10/17 05:40:10;;;;;;;;;;;20.10;93.80;;;;;;5116697;28;19907;-45
2022/10/17 05:42:36;;;;;;;;;;;20.10;93.80;;;;;;5115347;28;19926;-40
2022/10/17 05:45:01;;;;;;;;;;;20.00;93.80;;;;;;5116583;28;19911;-43
2022/10/17 05:47:27;;;;;;;;;;;20.10;93.80;;;;;;5120416;27;19941;-43
2022/10/17 05:49:52;;;;;;;;;;;20.10;93.80;;;;;;5115694;27;19912;-43
2022/10/17 05:52:18;;;;;;;;;;;20.10;93.80;;;;;;5115186;28;20381;-41
2022/10/17 05:54:43;;;;;;;;;;;20.10;93.80;;;;;;5115133;28;20108;-42
2022/10/17 05:57:08;;;;;;;;;;;20.10;93.80;;;;;;5115034;27;20378;-43
2022/10/17 05:59:34;;;;;;;;;;;20.10;93.80;;;;;;5115010;28;19912;-46
2022/10/17 06:01:59;;;;;;;;;;;20.10;93.80;;;;;;5115412;27;19908;-44
2022/10/17 06:04:26;;;;;;;;;;;20.10;93.80;;;;;;5116369;28;20270;-44
2022/10/17 06:06:52;;;;;;;;;;;20.10;93.80;;;;;;5114881;28;19920;-47
2022/10/17 06:09:17;;;;;;;;;;;20.10;93.80;;;;;;5116211;28;20290;-40
2022/10/17 06:11:43;;;;;;;;;;;20.10;93.80;;;;;;5096202;28;19908;-46
2022/10/17 06:14:08;;;;;;;;;;;20.20;93.80;;;;;;5114755;28;19916;-45
2022/10/17 06:16:34;;;;;;;;;;;20.20;93.80;;;;;;5114366;28;20290;-42
2022/10/17 06:18:59;;;;;;;;;;;20.20;93.80;;;;;;5114790;27;20395;-42
2022/10/17 06:21:25;;;;;;;;;;;20.20;93.80;;;;;;5116233;28;19955;-43
2022/10/17 06:23:51;;;;;;;;;;;20.10;93.80;;;;;;5114710;28;19912;-46
2022/10/17 06:26:17;;;;;;;;;;;20.20;93.80;;;;;;5097243;27;20377;-42
2022/10/17 06:28:42;;;;;;;;;;;20.20;93.80;;;;;;5096395;28;20380;-41
2022/10/17 06:31:09;;;;;;;;;;;20.10;93.80;;;;;;5113419;28;20330;-41
2022/10/17 06:33:35;;;;;;;;;;;20.20;93.80;;;;;;5114870;28;20006;-42
2022/10/17 06:36:00;;;;;;;;;;;20.20;93.70;;;;;;5113059;28;20014;-41
2022/10/17 06:38:26;;;;;;;;;;;20.20;93.60;;;;;;5109191;28;20011;-41
2022/10/17 06:40:53;;;;;;;;;;;20.20;93.70;;;;;;5112396;28;19919;-43
2022/10/17 06:43:18;;;;;;;;;;;20.20;93.60;;;;;;5114619;28;19908;-41
2022/10/17 06:45:44;;;;;;;;;;;20.10;93.60;;;;;;5114407;28;20320;-42
2022/10/17 06:48:10;;;;;;;;;;;20.10;93.60;;;;;;5115777;28;19911;-42
2022/10/17 06:50:35;;;;;;;;;;;20.10;93.60;;;;;;5115617;28;19908;-42
2022/10/17 06:53:01;;;;;;;;;;;20.10;93.60;;;;;;5115265;28;19961;-42
2022/10/17 06:55:26;;;;;;;;;;;20.10;93.60;;;;;;5115001;28;20227;-41
2022/10/17 06:57:53;;;;;;;;;;;20.10;93.60;;;;;;5115003;28;19931;-42
2022/10/17 07:00:18;;;;;;;;;;;20.10;93.60;;;;;;5115171;28;19908;-42
2022/10/17 07:02:44;;;;;;;;;;;20.10;93.60;;;;;;5096886;28;19914;-42
2022/10/17 07:05:09;;;;;;;;;;;20.10;93.60;;;;;;5115254;28;19936;-42
2022/10/17 07:07:35;;;;;;;;;;;20.10;93.50;;;;;;5114912;28;19920;-42
2022/10/17 07:10:02;;;;;;;;;;;20.10;93.50;;;;;;5115144;28;19908;-42
2022/10/17 07:12:28;;;;;;;;;;;20.20;93.50;;;;;;5114909;28;19999;-41
2022/10/17 07:14:53;;;;;;;;;;;20.10;93.40;;;;;;5115075;28;20027;-42
2022/10/17 07:17:19;;;;;;;;;;;20.10;93.40;;;;;;5115048;28;20346;-42
2022/10/17 07:19:44;;;;;;;;;;;20.10;93.40;;;;;;5115032;28;20036;-42
2022/10/17 07:22:10;;;;;;;;;;;20.10;93.40;;;;;;5114559;28;20342;-42
2022/10/17 07:24:35;;;;;;;;;;;20.10;93.40;;;;;;5114437;28;20378;-43
2022/10/17 07:27:01;;;;;;;;;;;20.10;93.40;;;;;;5114839;28;19908;-41
2022/10/17 07:29:26;;;;;;;;;;;20.20;93.30;;;;;;5114575;28;19916;-42
2022/10/17 07:31:52;;;;;;;;;;;20.20;93.30;;;;;;5114388;28;19908;-42
2022/10/17 07:34:18;;;;;;;;;;;20.20;93.30;;;;;;5114626;28;19914;-41
2022/10/17 07:36:43;;;;;;;;;;;20.20;93.20;;;;;;5114416;28;19964;-42
2022/10/17 07:39:09;;;;;;;;;;;20.20;93.20;;;;;;5114312;28;19908;-39
2022/10/17 07:41:34;;;;;;;;;;;20.20;93.20;;;;;;5114107;28;19999;-42
2022/10/17 07:44:00;;;;;;;;;;;20.20;93.20;;;;;;5114579;28;19908;-42
2022/10/17 07:46:25;;;;;;;;;;;20.20;93.20;;;;;;5114548;28;20372;-42
2022/10/17 07:48:51;;;;;;;;;;;20.20;93.10;;;;;;5114265;28;19961;-45
2022/10/17 07:51:17;;;;;;;;;;;20.20;93.10;;;;;;5114064;28;19918;-41
2022/10/17 07:53:43;;;;;;;;;;;20.20;93.10;;;;;;5114123;28;19915;-42
2022/10/17 07:56:09;;;;;;;;;;;20.20;93.10;;;;;;5095900;28;20269;-42
2022/10/17 07:58:35;;;;;;;;;;;20.20;93.00;;;;;;5114228;28;19998;-40
2022/10/17 08:01:05;;;;;;;;;;;20.20;93.00;;;;;;5114522;28;20254;-42
2022/10/17 08:03:31;;;;;;;;;;;20.30;93.00;;;;;;5114287;28;19924;-42
2022/10/17 08:05:57;;;;;;;;;;;20.20;93.00;;;;;;5114088;28;19991;-42
2022/10/17 08:08:23;;;;;;;;;;;20.20;93.00;;;;;;5114235;28;20374;-43
2022/10/17 08:10:48;;;;;;;;;;;20.20;93.00;;;;;;5114102;28;19915;-42
2022/10/17 08:13:14;;;;;;;;;;;20.30;93.00;;;;;;5113907;28;20273;-42
2022/10/17 08:15:39;;;;;;;;;;;20.20;93.00;;;;;;5113919;28;19922;-42
2022/10/17 08:18:04;;;;;;;;;;;20.20;93.00;;;;;;5096010;28;19947;-42
2022/10/17 08:20:30;;;;;;;;;;;20.30;93.00;;;;;;5114216;28;19915;-42
2022/10/17 08:22:55;;;;;;;;;;;20.20;93.00;;;;;;5113803;28;19986;-42
2022/10/17 08:25:22;;;;;;;;;;;20.20;93.00;;;;;;5114292;28;19961;-42
2022/10/17 08:27:47;;;;;;;;;;;20.20;93.00;;;;;;5113844;28;19961;-43
2022/10/17 08:30:13;;;;;;;;;;;20.20;93.00;;;;;;5113685;28;20371;-42
2022/10/17 08:32:38;;;;;;;;;;;20.30;93.00;;;;;;5113972;28;19907;-42
2022/10/17 08:35:04;;;;;;;;;;;20.30;93.00;;;;;;5098976;28;19979;-41
2022/10/17 08:37:31;;;;;;;;;;;20.20;92.90;;;;;;5118007;28;19908;-42
2022/10/17 08:39:56;;;;;;;;;;;20.30;93.00;;;;;;5117682;28;19978;-42
2022/10/17 08:42:22;;;;;;;;;;;20.30;92.90;;;;;;5117621;28;19938;-43
2022/10/17 08:44:50;;;;;;;;;;;20.30;92.90;;;;;;5117525;28;19915;-42
2022/10/17 08:47:20;;;;;;;;;;;20.30;92.80;;;;;;5117676;28;20266;-42
2022/10/17 08:49:46;;;;;;;;;;;20.30;92.80;;;;;;5117612;28;20010;-41
2022/10/17 08:52:28;;;;;;;;;;;20.30;92.80;;;;;;5117386;28;19908;-42
2022/10/17 08:54:54;;;;;;;;;;;20.30;92.80;;;;;;5099858;28;20273;-42
2022/10/17 08:57:19;;;;;;;;;;;20.30;92.80;;;;;;5117353;28;19908;-42
2022/10/17 08:59:49;;;;;;;;;;;20.30;92.80;;;;;;5117424;28;19908;-42
2022/10/17 09:02:30;;;;;;;;;;;20.30;92.80;;;;;;5117459;28;19931;-42
2022/10/17 09:05:02;;;;;;;;;;;20.30;92.80;;;;;;5117664;28;19907;-44
2022/10/17 09:08:00;;;;;;;;;;;20.30;92.70;;;;;;5117417;28;20277;-42
2022/10/17 09:10:48;;;;;;;;;;;20.30;92.70;;;;;;5071789;28;20308;-42
2022/10/17 09:13:13;;;;;;;;;;;20.30;92.70;;;;;;5116939;28;19919;-42
2022/10/17 09:15:45;;;;;;;;;;;20.20;92.70;;;;;;5116944;28;19915;-42
2022/10/17 09:18:22;;;;;;;;;;;20.30;92.70;;;;;;5117099;28;19907;-42
2022/10/17 09:20:53;;;;;;;;;;;20.30;92.70;;;;;;5098977;28;19907;-42
2022/10/17 09:23:21;;;;;;;;;;;20.30;92.70;;;;;;5117138;28;19955;-42
2022/10/17 09:25:50;;;;;;;;;;;20.30;92.70;;;;;;5098637;28;19912;-42
2022/10/17 09:28:18;;;;;;;;;;;20.30;92.70;;;;;;5117043;28;19908;-42
2022/10/17 09:30:50;;;;;;;;;;;20.30;92.70;;;;;;5116656;28;19908;-42
2022/10/17 09:33:20;;;;;;;;;;;20.30;92.70;;;;;;5116927;28;19943;-42
2022/10/17 09:35:46;;;;;;;;;;;20.30;92.70;;;;;;5116653;28;19919;-42
2022/10/17 09:38:14;;;;;;;;;;;20.30;92.70;;;;;;5116568;28;19914;-42
2022/10/17 09:40:40;;;;;;;;;;;20.30;92.70;;;;;;5116793;28;19918;-42
2022/10/17 09:43:06;;;;;;;;;;;20.30;92.70;;;;;;5116740;28;20006;-42
2022/10/17 09:45:36;;;;;;;;;;;20.30;92.70;;;;;;5116412;28;19950;-42
2022/10/17 09:48:25;;;;;;;;;;;20.30;92.60;;;;;;5116516;28;20018;-42
2022/10/17 09:50:50;;;;;;;;;;;20.30;92.60;;;;;;5105796;28;19908;-42
2022/10/17 09:53:36;;;;;;;;;;;20.30;92.60;;;;;;5116315;28;19958;-42
2022/10/17 09:56:06;;;;;;;;;;;20.30;92.60;;;;;;5115966;28;19966;-42
2022/10/17 09:58:48;;;;;;;;;;;20.30;92.60;;;;;;5098040;28;19912;-43
2022/10/17 10:01:34;;;;;;;;;;;20.30;92.60;;;;;;5116095;28;19914;-42
2022/10/17 10:04:08;;;;;;;;;;;20.30;92.60;;;;;;5115666;28;19998;-42
2022/10/17 10:06:34;;;;;;;;;;;20.30;92.60;;;;;;5116156;28;19965;-42
2022/10/17 10:08:59;;;;;;;;;;;20.30;92.60;;;;;;5116218;28;20316;-42
2022/10/17 10:11:42;;;;;;;;;;;20.30;92.60;;;;;;5115823;28;19911;-42
2022/10/17 10:14:34;;;;;;;;;;;20.30;92.60;;;;;;5115980;28;19939;-42
2022/10/17 10:17:00;;;;;;;;;;;20.30;92.60;;;;;;5106260;28;19939;-42
2022/10/17 10:19:29;;;;;;;;;;;20.30;92.60;;;;;;5115631;28;19961;-41
2022/10/17 10:21:55;;;;;;;;;;;20.30;92.60;;;;;;5115896;28;19994;-43
2022/10/17 10:24:22;;;;;;;;;;;20.30;92.60;;;;;;5115923;28;19915;-42
2022/10/17 10:26:48;;;;;;;;;;;20.30;92.80;;;;;;5115599;28;19907;-42
2022/10/17 10:29:19;;;;;;;;;;;20.30;92.60;;;;;;5115789;28;19927;-42
2022/10/17 10:31:45;;;;;;;;;;;20.30;92.60;;;;;;5115860;28;19915;-42
2022/10/17 10:34:17;;;;;;;;;;;20.20;92.60;;;;;;5115883;28;19953;-42
2022/10/17 10:36:44;;;;;;;;;;;20.30;92.60;;;;;;5115366;28;20306;-42
2022/10/17 10:39:14;;;;;;;;;;;20.30;92.60;;;;;;5115600;28;19994;-42
2022/10/17 10:41:46;;;;;;;;;;;20.30;92.60;;;;;;5115655;28;19912;-42
2022/10/17 10:44:13;;;;;;;;;;;20.30;92.60;;;;;;5115229;28;20366;-42
2022/10/17 10:46:39;;;;;;;;;;;20.30;92.60;;;;;;5115736;28;19908;-41
2022/10/17 10:49:24;;;;;;;;;;;20.30;92.60;;;;;;5115184;28;20381;-42
2022/10/17 10:51:50;;;;;;;;;;;20.30;92.60;;;;;;5114865;28;19907;-42
2022/10/17 10:54:18;;;;;;;;;;;20.30;92.60;;;;;;5114945;28;19912;-42
2022/10/17 10:56:49;;;;;;;;;;;20.30;92.50;;;;;;5114386;28;20186;-41
2022/10/17 10:59:33;;;;;;;;;;;20.30;92.50;;;;;;5115156;28;19908;-43
2022/10/17 11:02:14;;;;;;;;;;;20.30;92.50;;;;;;5096827;28;20235;-42
2022/10/17 11:04:40;;;;;;;;;;;20.30;92.50;;;;;;5115086;28;20323;-42
2022/10/17 11:07:14;;;;;;;;;;;20.30;92.50;;;;;;5114775;28;19981;-42
2022/10/17 11:09:51;;;;;;;;;;;20.30;92.50;;;;;;5115158;28;19908;-42
2022/10/17 11:12:20;;;;;;;;;;;20.30;92.50;;;;;;5114712;28;20397;-43
2022/10/17 11:15:08;;;;;;;;;;;20.20;92.50;;;;;;5114861;28;20069;-42
2022/10/17 11:17:33;;;;;;;;;;;20.30;92.50;;;;;;5076162;28;19953;-43
2022/10/17 11:20:08;;;;;;;;;;;20.30;92.50;;;;;;5114762;28;19998;-40
2022/10/17 11:22:47;;;;;;;;;;;20.30;92.50;;;;;;5114639;28;19915;-41
2022/10/17 11:25:24;;;;;;;;;;;20.30;92.60;;;;;;5114090;28;19907;-40
2022/10/17 11:27:50;;;;;;;;;;;20.30;92.60;;;;;;5114272;28;19951;-41
2022/10/17 11:30:15;;;;;;;;;;;20.30;92.60;;;;;;5114613;28;19907;-41
2022/10/17 11:32:46;;;;;;;;;;;20.20;92.50;;;;;;5114321;28;20017;-42
2022/10/17 11:35:25;;;;;;;;;;;20.30;92.60;;;;;;5114220;28;19916;-41
2022/10/17 11:38:05;;;;;;;;;;;20.30;92.60;;;;;;5114326;28;20359;-42
2022/10/17 11:40:34;;;;;;;;;;;20.30;92.60;;;;;;5114465;28;19908;-41
2022/10/17 11:43:11;;;;;;;;;;;20.30;92.60;;;;;;5114120;28;19952;-41
2022/10/17 11:45:43;;;;;;;;;;;20.30;92.60;;;;;;5114106;28;19911;-41
2022/10/17 11:48:15;;;;;;;;;;;20.30;92.60;;;;;;5114372;28;20003;-41
2022/10/17 11:50:42;;;;;;;;;;;20.30;92.60;;;;;;5114285;28;19908;-42
2022/10/17 11:53:28;;;;;;;;;;;20.30;92.60;;;;;;5114093;28;19958;-41
2022/10/17 11:55:56;;;;;;;;;;;20.30;92.60;;;;;;5114260;28;19916;-41
2022/10/17 11:58:25;;;;;;;;;;;20.30;92.50;;;;;;5113841;28;19931;-41
2022/10/17 12:00:53;;;;;;;;;;;20.30;92.80;;;;;;5095980;28;20350;-40
2022/10/17 12:03:28;;;;;;;;;;;20.30;92.50;;;;;;5114693;28;20354;-42
2022/10/17 12:06:12;;;;;;;;;;;20.30;92.50;;;;;;5114338;28;19907;-41
2022/10/17 12:08:46;;;;;;;;;;;20.20;92.50;;;;;;5116532;28;19951;-41
2022/10/17 12:11:23;;;;;;;;;;;20.30;92.50;;;;;;5118251;28;19908;-41
2022/10/17 12:13:50;;;;;;;;;;;20.30;92.50;;;;;;5118002;28;19924;-42
2022/10/17 12:16:18;;;;;;;;;;;20.30;92.50;;;;;;5118075;28;19923;-41
2022/10/17 12:18:44;;;;;;;;;;;20.30;92.50;;;;;;5117945;28;19912;-41
2022/10/17 12:21:10;;;;;;;;;;;20.20;92.50;;;;;;5117959;28;20273;-43
2022/10/17 12:23:37;;;;;;;;;;;20.30;92.50;;;;;;5118342;28;19908;-41
2022/10/17 12:26:04;;;;;;;;;;;20.30;92.60;;;;;;5118176;28;19907;-41
2022/10/17 12:28:30;;;;;;;;;;;20.20;92.50;;;;;;5117977;28;20022;-44
2022/10/17 12:30:55;;;;;;;;;;;20.30;92.50;;;;;;5118200;28;20362;-43
2022/10/17 12:33:47;;;;;;;;;;;20.30;92.50;;;;;;5117796;28;19964;-42
2022/10/17 12:36:16;;;;;;;;;;;20.30;92.50;;;;;;5113506;28;20366;-42
2022/10/17 12:38:45;;;;;;;;;;;20.30;92.50;;;;;;5117363;28;20282;-41
2022/10/17 12:41:10;;;;;;;;;;;20.30;92.50;;;;;;5117748;28;19911;-41
2022/10/17 12:43:42;;;;;;;;;;;20.30;92.50;;;;;;5117727;28;19908;-41
2022/10/17 12:46:07;;;;;;;;;;;20.30;92.60;;;;;;5117970;28;19954;-41
2022/10/17 12:48:33;;;;;;;;;;;20.30;92.50;;;;;;5117325;28;19912;-41
2022/10/17 12:50:58;;;;;;;;;;;20.30;92.50;;;;;;5099160;28;20000;-41
2022/10/17 12:53:25;;;;;;;;;;;20.30;92.50;;;;;;5117084;28;19915;-41
2022/10/17 12:55:58;;;;;;;;;;;20.30;92.50;;;;;;5117143;28;19926;-42
2022/10/17 12:58:23;;;;;;;;;;;20.30;92.50;;;;;;5099036;28;19908;-41
2022/10/17 13:00:55;;;;;;;;;;;20.30;92.50;;;;;;5117066;28;19914;-41
2022/10/17 13:03:23;;;;;;;;;;;20.30;92.50;;;;;;5117026;28;19911;-40
2022/10/17 13:05:50;;;;;;;;;;;20.30;92.50;;;;;;5116771;28;19908;-41
2022/10/17 13:08:27;;;;;;;;;;;20.30;92.50;;;;;;5117592;28;19920;-40
2022/10/17 13:10:53;;;;;;;;;;;20.30;92.50;;;;;;5117326;28;19953;-41
2022/10/17 13:13:24;;;;;;;;;;;20.30;92.50;;;;;;5116985;28;19908;-42
2022/10/17 13:15:53;;;;;;;;;;;20.20;92.50;;;;;;5117040;28;19967;-43
2022/10/17 13:18:23;;;;;;;;;;;20.30;92.50;;;;;;5116748;28;19943;-40
2022/10/17 13:21:05;;;;;;;;;;;20.30;92.50;;;;;;5116570;28;19908;-40
2022/10/17 13:23:32;;;;;;;;;;;20.30;92.50;;;;;;5116884;28;20312;-41
2022/10/17 13:26:01;;;;;;;;;;;20.30;92.50;;;;;;5116525;28;19930;-41
2022/10/17 13:28:27;;;;;;;;;;;20.30;92.50;;;;;;5117076;28;19950;-41
2022/10/17 13:30:53;;;;;;;;;;;20.30;92.50;;;;;;5116794;28;19912;-41
2022/10/17 13:33:47;;;;;;;;;;;20.20;92.50;;;;;;5116409;28;19970;-41
2022/10/17 13:36:18;;;;;;;;;;;20.30;92.50;;;;;;5098785;28;20374;-41
2022/10/17 13:38:43;;;;;;;;;;;20.30;92.50;;;;;;5116524;28;19908;-41
2022/10/17 13:41:11;;;;;;;;;;;20.30;92.50;;;;;;5116635;28;19915;-41
2022/10/17 13:43:37;;;;;;;;;;;20.30;92.50;;;;;;5116527;28;19907;-42
2022/10/17 13:46:04;;;;;;;;;;;20.30;92.50;;;;;;5116190;28;20453;-42
2022/10/17 13:48:31;;;;;;;;;;;20.30;92.50;;;;;;5116017;28;20255;-42
2022/10/17 13:50:58;;;;;;;;;;;20.30;92.50;;;;;;5116397;28;20298;-41
2022/10/17 13:53:28;;;;;;;;;;;20.30;92.50;;;;;;5116443;28;19973;-42
2022/10/17 13:55:57;;;;;;;;;;;20.30;92.50;;;;;;5115849;28;20294;-41
2022/10/17 13:58:23;;;;;;;;;;;20.30;92.50;;;;;;5116101;28;19908;-42
2022/10/17 14:00:51;;;;;;;;;;;20.30;92.40;;;;;;5115913;28;19915;-41
2022/10/17 14:03:20;;;;;;;;;;;20.30;92.40;;;;;;5116134;28;20405;-42
2022/10/17 14:05:59;;;;;;;;;;;20.30;92.40;;;;;;5116168;28;19919;-40
2022/10/17 14:08:25;;;;;;;;;;;20.30;92.40;;;;;;5097389;28;19993;-42
2022/10/17 14:10:50;;;;;;;;;;;20.30;92.40;;;;;;5115305;28;19908;-41
2022/10/17 14:13:20;;;;;;;;;;;20.30;92.40;;;;;;5116303;28;19930;-40
2022/10/17 14:15:46;;;;;;;;;;;20.30;92.40;;;;;;5115797;28;20022;-41
2022/10/17 14:18:23;;;;;;;;;;;20.30;92.40;;;;;;5115377;28;20433;-41
2022/10/17 14:20:49;;;;;;;;;;;20.30;92.40;;;;;;5115464;28;19908;-41
2022/10/17 14:23:35;;;;;;;;;;;20.20;92.40;;;;;;5097471;28;19907;-43
2022/10/17 14:26:20;;;;;;;;;;;20.30;92.50;;;;;;5115499;28;19931;-41